Time;durP1;ratioP1;P1;durP2;ratioP2;P2;SDS_P1;SDS_P2;PMS_P1;PMS_P2;Temp;Humidity;BMP_temperature;BMP_pressure;BME280_temperature;BME280_humidity;BME280_pressure;Samples;Min_cycle;Max_cycle;Signal;HPM_P1;HPM_P2
2021/12/20 00:00:19;;;;;;;1.00;0.53;;;8.70;99.90;;;;;;5102684;28;20652;-68
2021/12/20 00:02:51;;;;;;;2.40;0.50;;;8.70;99.90;;;;;;5104571;27;20186;-67
2021/12/20 00:05:19;;;;;;;0.47;0.10;;;8.70;99.90;;;;;;5106093;27;20181;-67
2021/12/20 00:07:46;;;;;;;0.93;0.30;;;8.70;99.90;;;;;;5117641;27;20629;-67
2021/12/20 00:10:14;;;;;;;1.47;0.40;;;8.70;99.90;;;;;;5102201;27;20188;-67
2021/12/20 00:12:41;;;;;;;1.23;0.30;;;8.70;99.90;;;;;;5124656;27;20230;-67
2021/12/20 00:15:08;;;;;;;0.37;0.20;;;8.70;99.90;;;;;;5119651;27;20807;-67
2021/12/20 00:17:35;;;;;;;0.40;0.30;;;8.70;99.90;;;;;;5124140;27;20693;-67
2021/12/20 00:20:02;;;;;;;1.27;0.50;;;8.70;99.90;;;;;;5115054;27;20859;-68
2021/12/20 00:22:29;;;;;;;0.53;0.30;;;8.80;99.90;;;;;;5106668;28;20193;-67
2021/12/20 00:24:55;;;;;;;0.50;0.20;;;8.80;99.90;;;;;;5106183;27;20199;-67
2021/12/20 00:27:22;;;;;;;0.70;0.37;;;8.80;99.90;;;;;;5106971;28;20188;-67
2021/12/20 00:29:49;;;;;;;2.07;0.27;;;8.80;99.90;;;;;;5140372;27;20550;-68
2021/12/20 00:32:17;;;;;;;0.20;0.20;;;8.80;99.90;;;;;;5101713;28;21010;-67
2021/12/20 00:34:45;;;;;;;0.30;0.30;;;8.80;99.90;;;;;;5134335;27;20769;-68
2021/12/20 00:42:45;;;;;;;0.80;0.50;;;8.80;99.90;;;;;;5111700;28;20180;-67
2021/12/20 00:45:13;;;;;;;0.70;0.30;;;8.80;99.90;;;;;;5124281;27;20223;-67
2021/12/20 00:47:42;;;;;;;1.33;0.40;;;8.80;99.90;;;;;;5106036;28;20184;-68
2021/12/20 00:50:11;;;;;;;2.20;0.40;;;8.80;99.90;;;;;;5099956;28;20220;-68
2021/12/20 00:52:38;;;;;;;0.37;0.30;;;8.80;99.90;;;;;;5132814;27;20557;-67
2021/12/20 00:55:05;;;;;;;1.43;0.40;;;8.90;99.90;;;;;;5110364;28;20264;-67
2021/12/20 00:57:32;;;;;;;0.73;0.30;;;8.90;99.90;;;;;;5102502;28;20189;-68
2021/12/20 00:59:58;;;;;;;0.27;0.27;;;8.90;99.90;;;;;;5102347;28;20677;-67
2021/12/20 01:02:25;;;;;;;0.77;0.20;;;8.90;99.90;;;;;;5105808;28;20782;-67
2021/12/20 01:04:51;;;;;;;0.77;0.30;;;8.90;99.90;;;;;;5099403;27;20190;-67
2021/12/20 01:07:17;;;;;;;2.03;0.43;;;8.90;99.90;;;;;;5119264;27;20211;-68
2021/12/20 01:09:44;;;;;;;2.80;0.50;;;8.90;99.90;;;;;;5100422;27;20184;-67
2021/12/20 01:12:19;;;;;;;0.57;0.30;;;8.90;99.90;;;;;;5100823;27;20191;-68
2021/12/20 01:14:47;;;;;;;0.50;0.30;;;9.00;99.90;;;;;;5105102;27;20828;-66
2021/12/20 01:17:13;;;;;;;0.37;0.37;;;9.00;99.90;;;;;;5090855;27;20200;-67
2021/12/20 01:19:40;;;;;;;0.63;0.40;;;9.00;99.90;;;;;;5105814;27;20216;-67
2021/12/20 01:22:07;;;;;;;0.90;0.20;;;9.00;99.90;;;;;;5090077;28;20190;-67
2021/12/20 01:24:33;;;;;;;1.70;0.37;;;9.00;99.90;;;;;;5117046;27;20192;-67
2021/12/20 01:27:03;;;;;;;1.27;0.50;;;9.00;99.90;;;;;;5089708;28;20764;-67
2021/12/20 01:29:29;;;;;;;1.80;0.70;;;9.00;99.90;;;;;;5125904;27;20192;-67
2021/12/20 01:31:55;;;;;;;4.90;0.63;;;9.00;99.90;;;;;;5098604;28;20239;-67
2021/12/20 01:34:22;;;;;;;0.30;0.30;;;8.90;99.90;;;;;;5127560;27;20252;-67
2021/12/20 01:36:48;;;;;;;3.40;0.53;;;8.90;99.90;;;;;;5109252;27;20645;-68
2021/12/20 01:39:15;;;;;;;0.70;0.60;;;8.90;99.90;;;;;;5096047;28;20252;-66
2021/12/20 01:41:44;;;;;;;1.23;0.40;;;8.90;99.90;;;;;;5114588;27;20299;-67
2021/12/20 01:44:13;;;;;;;2.13;0.50;;;8.90;99.90;;;;;;5108563;27;20200;-67
2021/12/20 01:46:39;;;;;;;2.07;0.77;;;8.90;99.90;;;;;;5101683;27;20185;-67
2021/12/20 01:49:10;;;;;;;0.70;0.50;;;8.80;99.90;;;;;;5097517;27;20220;-67
2021/12/20 01:52:02;;;;;;;3.47;0.85;;;8.80;99.90;;;;;;5109847;27;20433;-66
2021/12/20 01:54:30;;;;;;;2.77;0.80;;;8.80;99.90;;;;;;5108380;27;20180;-66
2021/12/20 01:56:57;;;;;;;2.27;0.57;;;8.80;99.90;;;;;;5110795;27;20184;-68
2021/12/20 01:59:23;;;;;;;5.77;0.90;;;8.80;99.90;;;;;;5111935;27;21046;-67
2021/12/20 02:01:52;;;;;;;3.13;0.50;;;8.70;99.90;;;;;;5127836;27;20268;-67
2021/12/20 02:04:20;;;;;;;2.07;0.50;;;8.70;99.90;;;;;;5112240;27;20223;-66
2021/12/20 02:06:47;;;;;;;4.43;0.77;;;8.70;99.90;;;;;;5095182;27;20303;-66
2021/12/20 02:09:18;;;;;;;1.97;0.80;;;8.70;99.90;;;;;;5145618;27;20197;-64
2021/12/20 02:11:48;;;;;;;4.63;0.80;;;8.70;99.90;;;;;;5130257;27;20263;-65
2021/12/20 02:14:18;;;;;;;3.53;0.73;;;8.60;99.90;;;;;;5090550;27;20903;-65
2021/12/20 02:16:45;;;;;;;0.80;0.57;;;8.60;99.90;;;;;;5111857;27;20679;-66
2021/12/20 02:19:16;;;;;;;1.93;0.53;;;8.60;99.90;;;;;;5112292;27;20173;-65
2021/12/20 02:21:47;;;;;;;2.47;0.73;;;8.50;99.90;;;;;;5092409;27;20716;-66
2021/12/20 02:24:14;;;;;;;2.40;0.70;;;8.50;99.90;;;;;;5138599;27;20191;-66
2021/12/20 02:26:40;;;;;;;3.20;0.80;;;8.50;99.90;;;;;;5132322;27;20228;-65
2021/12/20 02:29:09;;;;;;;1.63;0.70;;;8.50;99.90;;;;;;5135767;27;20177;-66
2021/12/20 02:37:26;;;;;;;2.17;1.00;;;8.40;99.90;;;;;;5098431;28;20588;-66
2021/12/20 02:39:55;;;;;;;1.67;0.97;;;8.30;99.90;;;;;;5126144;27;20597;-66
2021/12/20 02:42:26;;;;;;;2.00;0.90;;;8.30;99.90;;;;;;5104697;27;20203;-66
2021/12/20 02:45:15;;;;;;;1.57;0.80;;;8.40;99.90;;;;;;5090478;27;20193;-66
2021/12/20 02:47:46;;;;;;;4.67;0.87;;;8.40;99.90;;;;;;5113720;27;20189;-65
2021/12/20 02:50:14;;;;;;;3.07;0.90;;;8.40;99.90;;;;;;5088978;27;20232;-66
2021/12/20 02:52:42;;;;;;;1.53;0.60;;;8.30;99.90;;;;;;5110243;27;20293;-65
2021/12/20 02:55:09;;;;;;;4.03;1.03;;;8.30;99.90;;;;;;5129565;27;20935;-65
2021/12/20 02:57:38;;;;;;;3.20;0.97;;;8.30;99.90;;;;;;5118888;27;20176;-65
2021/12/20 03:00:08;;;;;;;4.67;1.13;;;8.30;99.90;;;;;;5143612;27;20201;-66
2021/12/20 03:02:35;;;;;;;2.73;1.07;;;8.30;99.90;;;;;;5098187;28;20209;-66
2021/12/20 03:05:01;;;;;;;1.53;0.70;;;8.20;99.90;;;;;;5129039;27;20623;-65
2021/12/20 03:07:28;;;;;;;4.40;1.00;;;8.20;99.90;;;;;;5110241;27;20192;-64
2021/12/20 03:10:01;;;;;;;1.07;0.67;;;8.20;99.90;;;;;;5129544;27;20177;-66
2021/12/20 03:12:31;;;;;;;2.70;1.10;;;8.20;99.90;;;;;;5128517;27;20177;-65
2021/12/20 03:15:05;;;;;;;2.83;0.60;;;8.20;99.90;;;;;;5117927;27;20268;-66
2021/12/20 03:17:31;;;;;;;5.37;1.10;;;8.20;99.90;;;;;;5108603;27;20199;-66
2021/12/20 03:19:57;;;;;;;2.07;0.70;;;8.10;99.90;;;;;;5097041;27;20211;-66
2021/12/20 03:22:23;;;;;;;3.30;0.80;;;8.10;99.90;;;;;;5095194;27;20196;-65
2021/12/20 03:24:50;;;;;;;4.40;0.93;;;8.10;99.90;;;;;;5109334;27;20212;-66
2021/12/20 03:27:16;;;;;;;2.20;0.70;;;8.10;99.90;;;;;;5111011;27;20251;-66
2021/12/20 03:29:42;;;;;;;0.70;0.60;;;8.00;99.90;;;;;;5093438;27;20241;-65
2021/12/20 03:32:08;;;;;;;2.93;0.80;;;8.10;99.90;;;;;;5109771;27;20192;-66
2021/12/20 03:34:35;;;;;;;2.67;0.60;;;8.00;99.90;;;;;;5110648;27;20216;-66
2021/12/20 03:37:01;;;;;;;3.77;0.60;;;8.00;99.90;;;;;;5100957;27;20176;-67
2021/12/20 03:39:28;;;;;;;3.63;1.23;;;7.90;99.90;;;;;;5109429;27;20208;-69
2021/12/20 03:41:54;;;;;;;3.93;0.77;;;7.90;99.90;;;;;;5110213;27;20238;-68
2021/12/20 03:44:23;;;;;;;0.90;0.40;;;7.90;99.90;;;;;;5103116;27;20220;-67
2021/12/20 03:46:49;;;;;;;0.67;0.50;;;7.90;99.90;;;;;;5122045;27;20184;-69
2021/12/20 03:49:16;;;;;;;1.30;0.30;;;7.90;99.90;;;;;;5109456;27;20208;-69
2021/12/20 03:51:42;;;;;;;6.13;1.07;;;7.90;99.90;;;;;;5110138;27;20177;-69
2021/12/20 03:54:08;;;;;;;1.40;0.60;;;7.90;99.90;;;;;;5123336;27;21025;-69
2021/12/20 03:56:35;;;;;;;1.13;0.37;;;7.90;99.90;;;;;;5146188;27;20212;-67
2021/12/20 03:59:02;;;;;;;0.73;0.50;;;7.90;99.90;;;;;;5129184;27;20976;-68
2021/12/20 04:01:28;;;;;;;1.43;0.47;;;8.00;99.90;;;;;;5088750;28;20748;-67
2021/12/20 04:03:57;;;;;;;1.90;0.80;;;7.90;99.90;;;;;;5104979;27;20849;-67
2021/12/20 04:06:24;;;;;;;0.60;0.40;;;8.00;99.90;;;;;;5089044;28;20238;-68
2021/12/20 04:08:50;;;;;;;1.23;0.30;;;8.00;99.90;;;;;;5110250;27;20249;-67
2021/12/20 04:11:16;;;;;;;0.60;0.40;;;8.10;99.90;;;;;;5109991;27;20295;-67
2021/12/20 04:13:43;;;;;;;0.37;0.30;;;8.10;99.90;;;;;;5118064;27;20197;-66
2021/12/20 04:16:09;;;;;;;3.63;1.30;;;8.10;99.90;;;;;;5096142;27;20794;-66
2021/12/20 04:18:36;;;;;;;0.77;0.67;;;8.00;99.90;;;;;;5123139;27;20184;-67
2021/12/20 04:21:03;;;;;;;2.10;0.70;;;8.00;99.90;;;;;;5095981;27;20205;-67
2021/12/20 04:23:30;;;;;;;5.20;2.53;;;8.00;99.90;;;;;;5128011;27;20808;-67
2021/12/20 04:25:56;;;;;;;3.67;1.10;;;7.90;99.90;;;;;;5109314;28;20196;-67
2021/12/20 04:28:23;;;;;;;1.13;0.83;;;7.90;99.90;;;;;;5127820;27;20181;-66
2021/12/20 04:30:50;;;;;;;0.73;0.50;;;7.90;99.90;;;;;;5114853;27;20188;-68
2021/12/20 04:33:17;;;;;;;0.87;0.40;;;7.90;99.90;;;;;;5124112;27;20244;-66
2021/12/20 04:35:43;;;;;;;5.67;0.70;;;7.90;99.90;;;;;;5127809;28;20284;-68
2021/12/20 04:38:10;;;;;;;1.30;0.37;;;8.00;99.90;;;;;;5109778;28;20670;-68
2021/12/20 04:40:37;;;;;;;1.27;0.60;;;8.00;99.90;;;;;;5109771;28;20223;-68
2021/12/20 04:43:04;;;;;;;1.43;0.53;;;8.00;99.90;;;;;;5109728;28;20541;-66
2021/12/20 04:45:31;;;;;;;1.03;0.80;;;8.00;99.90;;;;;;5106080;27;20215;-66
2021/12/20 04:47:58;;;;;;;4.00;2.00;;;8.00;99.90;;;;;;5107158;27;20635;-65
2021/12/20 04:50:28;;;;;;;2.53;1.70;;;8.00;99.90;;;;;;5112485;27;20188;-68
2021/12/20 04:52:55;;;;;;;1.00;0.73;;;8.00;99.90;;;;;;5113087;27;20583;-66
2021/12/20 04:55:24;;;;;;;0.40;0.40;;;8.00;99.90;;;;;;5112333;27;20184;-65
2021/12/20 04:57:51;;;;;;;1.00;0.70;;;7.90;99.90;;;;;;5097660;28;20189;-65
2021/12/20 05:00:24;;;;;;;2.13;0.73;;;7.90;99.90;;;;;;5094421;27;20693;-65
2021/12/20 05:02:50;;;;;;;0.67;0.60;;;7.90;99.90;;;;;;5115177;27;20277;-65
2021/12/20 05:05:18;;;;;;;1.00;0.10;;;7.80;99.90;;;;;;5103673;27;20184;-66
2021/12/20 05:07:46;;;;;;;1.03;0.37;;;7.80;99.90;;;;;;5096819;27;20203;-65
2021/12/20 05:10:24;;;;;;;1.57;0.57;;;7.80;99.90;;;;;;5130910;27;20527;-65
2021/12/20 05:12:56;;;;;;;0.23;0.23;;;7.70;99.90;;;;;;5119473;27;20271;-67
2021/12/20 05:15:24;;;;;;;0.93;0.23;;;7.70;99.90;;;;;;5113573;27;20185;-67
2021/12/20 05:17:51;;;;;;;2.00;0.60;;;7.70;99.90;;;;;;5130561;27;20193;-67
2021/12/20 05:20:18;;;;;;;0.70;0.60;;;7.80;99.90;;;;;;5113229;27;20654;-69
2021/12/20 05:22:47;;;;;;;2.30;0.60;;;7.80;99.90;;;;;;5106459;28;20212;-69
2021/12/20 05:25:13;;;;;;;1.40;0.60;;;7.90;99.90;;;;;;5092435;28;20630;-68
2021/12/20 05:27:40;;;;;;;0.80;0.80;;;7.80;99.90;;;;;;5098707;28;20170;-69
2021/12/20 05:30:09;;;;;;;0.77;0.57;;;7.80;99.90;;;;;;5111274;28;20272;-68
2021/12/20 05:32:36;;;;;;;0.50;0.50;;;7.70;99.90;;;;;;5133527;27;20189;-68
2021/12/20 05:35:08;;;;;;;1.00;0.50;;;7.80;99.90;;;;;;5112178;27;20225;-69
2021/12/20 05:37:35;;;;;;;1.17;0.77;;;7.70;99.90;;;;;;5107194;27;20763;-69
2021/12/20 05:40:01;;;;;;;0.40;0.40;;;7.80;99.90;;;;;;5111028;27;20213;-68
2021/12/20 05:42:27;;;;;;;0.23;0.23;;;7.70;99.90;;;;;;5092989;27;20191;-69
2021/12/20 05:44:54;;;;;;;1.40;0.40;;;7.70;99.90;;;;;;5111890;27;20218;-68
2021/12/20 05:47:24;;;;;;;1.10;0.30;;;7.70;99.90;;;;;;5115817;27;20649;-68
2021/12/20 05:49:52;;;;;;;0.83;0.37;;;7.80;99.90;;;;;;5124606;27;20181;-68
2021/12/20 05:52:19;;;;;;;1.17;0.27;;;7.70;99.90;;;;;;5129849;27;20250;-68
2021/12/20 05:54:46;;;;;;;0.30;0.30;;;7.70;99.90;;;;;;5103549;27;20202;-69
2021/12/20 05:57:12;;;;;;;0.20;0.20;;;7.70;99.90;;;;;;5092926;27;20196;-68
2021/12/20 05:59:39;;;;;;;0.40;0.33;;;7.70;99.90;;;;;;5128220;27;20282;-68
2021/12/20 06:02:05;;;;;;;0.20;0.20;;;7.80;99.90;;;;;;5108512;27;20185;-68
2021/12/20 06:04:32;;;;;;;0.47;0.47;;;7.80;99.90;;;;;;5109533;27;20172;-67
2021/12/20 06:06:58;;;;;;;0.30;0.27;;;7.80;99.90;;;;;;5127698;27;20679;-67
2021/12/20 06:09:25;;;;;;;0.13;0.10;;;7.80;99.90;;;;;;5094885;27;20184;-69
2021/12/20 06:11:51;;;;;;;0.63;0.20;;;7.80;99.90;;;;;;5111975;27;20264;-69
2021/12/20 06:14:17;;;;;;;0.30;0.30;;;7.80;99.90;;;;;;5122607;27;20238;-69
2021/12/20 06:16:43;;;;;;;0.40;0.40;;;7.80;99.90;;;;;;5123017;27;20296;-67
2021/12/20 06:19:09;;;;;;;0.60;0.30;;;7.80;99.90;;;;;;5105161;27;20180;-67
2021/12/20 06:21:36;;;;;;;0.50;0.50;;;7.80;99.90;;;;;;5107108;27;20184;-68
2021/12/20 06:24:02;;;;;;;0.90;0.80;;;7.80;99.90;;;;;;5098805;27;20250;-67
2021/12/20 06:26:29;;;;;;;0.40;0.40;;;7.90;99.90;;;;;;5117703;27;20192;-68
2021/12/20 06:28:55;;;;;;;0.73;0.43;;;7.90;99.90;;;;;;5105098;27;20235;-68
2021/12/20 06:31:21;;;;;;;0.30;0.30;;;8.00;99.90;;;;;;5122888;27;20177;-67
2021/12/20 06:33:47;;;;;;;0.67;0.17;;;8.00;99.90;;;;;;5129650;27;20192;-68
2021/12/20 06:36:15;;;;;;;0.20;0.20;;;8.00;99.90;;;;;;5124058;27;20761;-66
2021/12/20 06:38:45;;;;;;;2.03;0.23;;;8.00;99.90;;;;;;5109441;27;20184;-67
2021/12/20 06:41:12;;;;;;;0.20;0.20;;;8.00;99.90;;;;;;5103160;28;20959;-67
2021/12/20 06:43:39;;;;;;;0.03;0.03;;;8.10;99.90;;;;;;5127842;27;20216;-66
2021/12/20 06:46:06;;;;;;;0.63;0.10;;;8.10;99.90;;;;;;5129261;27;20181;-65
2021/12/20 06:48:34;;;;;;;0.20;0.10;;;8.00;99.90;;;;;;5096847;27;20291;-68
2021/12/20 06:51:01;;;;;;;0.97;0.20;;;8.00;99.90;;;;;;5123049;27;20191;-70
2021/12/20 06:53:27;;;;;;;0.10;0.03;;;8.00;99.90;;;;;;5106488;27;20181;-70
2021/12/20 06:55:54;;;;;;;1.20;0.30;;;8.10;99.90;;;;;;5109054;27;20192;-68
2021/12/20 06:58:20;;;;;;;0.80;0.60;;;8.10;99.90;;;;;;5094732;27;20200;-68
2021/12/20 07:00:46;;;;;;;0.60;0.40;;;8.20;99.90;;;;;;5129597;27;20205;-68
2021/12/20 07:03:13;;;;;;;0.20;0.20;;;8.30;99.90;;;;;;5109273;27;20188;-68
2021/12/20 07:05:39;;;;;;;1.77;0.40;;;8.40;99.90;;;;;;5124490;27;20172;-69
2021/12/20 07:08:05;;;;;;;0.10;0.10;;;8.50;99.90;;;;;;5110272;27;20195;-70
2021/12/20 07:10:32;;;;;;;0.73;0.30;;;8.60;99.90;;;;;;5124399;27;20203;-69
2021/12/20 07:12:58;;;;;;;0.10;0.10;;;8.70;99.90;;;;;;5139936;27;20189;-68
2021/12/20 07:15:26;;;;;;;0.37;0.10;;;8.70;99.90;;;;;;5091205;28;20261;-68
2021/12/20 07:17:54;;;;;;;0.20;0.13;;;8.80;99.90;;;;;;5105949;27;20235;-70
2021/12/20 07:20:21;;;;;;;0.20;0.20;;;8.80;99.90;;;;;;5123966;27;20231;-68
2021/12/20 07:22:47;;;;;;;0.20;0.20;;;8.80;99.90;;;;;;5103581;27;20186;-67
2021/12/20 07:25:13;;;;;;;0.10;0.10;;;8.80;99.90;;;;;;5100756;28;20538;-69
2021/12/20 07:27:40;;;;;;;1.83;0.20;;;8.90;99.90;;;;;;5108210;27;20245;-68
2021/12/20 07:30:08;;;;;;;1.13;0.10;;;9.00;99.90;;;;;;5123358;27;20181;-68
2021/12/20 07:32:35;;;;;;;0.10;0.10;;;9.00;99.90;;;;;;5109864;27;20189;-67
2021/12/20 07:35:01;;;;;;;0.20;0.20;;;9.00;99.90;;;;;;5117532;27;20346;-67
2021/12/20 07:37:28;;;;;;;0.60;0.40;;;9.10;99.90;;;;;;5124699;27;20632;-68
2021/12/20 07:39:54;;;;;;;0.57;0.30;;;9.20;99.90;;;;;;5112102;27;20258;-70
2021/12/20 07:42:21;;;;;;;0.33;0.27;;;9.20;99.90;;;;;;5085580;28;20180;-69
2021/12/20 07:44:47;;;;;;;0.40;0.40;;;9.20;99.90;;;;;;5109868;27;20234;-68
2021/12/20 07:47:14;;;;;;;1.80;0.53;;;9.20;99.90;;;;;;5110564;27;20228;-69
2021/12/20 07:49:40;;;;;;;1.60;0.50;;;9.20;99.90;;;;;;5114475;27;20184;-68
2021/12/20 07:52:07;;;;;;;0.67;0.60;;;9.30;99.90;;;;;;5104182;27;20655;-70
2021/12/20 07:54:33;;;;;;;0.50;0.50;;;9.30;99.90;;;;;;5107731;27;20302;-69
2021/12/20 07:57:00;;;;;;;1.13;0.70;;;9.30;99.90;;;;;;5126680;27;20189;-70
2021/12/20 07:59:26;;;;;;;1.47;0.80;;;9.30;99.90;;;;;;5125295;27;20304;-70
2021/12/20 08:01:53;;;;;;;1.67;0.77;;;9.30;99.90;;;;;;5106907;27;20688;-69
2021/12/20 08:04:21;;;;;;;2.20;0.80;;;9.30;99.90;;;;;;5134398;27;20184;-69
2021/12/20 08:06:48;;;;;;;1.20;0.80;;;9.30;99.90;;;;;;5098458;28;20182;-70
2021/12/20 08:09:15;;;;;;;1.70;0.90;;;9.20;99.90;;;;;;5124796;27;20188;-68
2021/12/20 08:11:43;;;;;;;2.80;0.60;;;9.30;99.90;;;;;;5093153;27;20177;-68
2021/12/20 08:14:10;;;;;;;3.13;0.90;;;9.30;99.90;;;;;;5107581;27;20628;-69
2021/12/20 08:16:36;;;;;;;1.53;0.80;;;9.20;99.90;;;;;;5125942;27;20191;-67
2021/12/20 08:19:03;;;;;;;1.40;0.80;;;9.30;99.90;;;;;;5106159;28;20187;-67
2021/12/20 08:21:30;;;;;;;1.47;1.20;;;9.30;99.90;;;;;;5123351;27;20209;-66
2021/12/20 08:23:56;;;;;;;3.37;1.50;;;9.40;99.90;;;;;;5103154;27;20271;-67
2021/12/20 08:26:22;;;;;;;3.30;1.40;;;9.40;99.90;;;;;;5117483;27;20189;-66
2021/12/20 08:28:49;;;;;;;8.73;2.13;;;9.50;99.90;;;;;;5113301;27;20243;-68
2021/12/20 08:31:15;;;;;;;3.10;1.50;;;9.50;99.90;;;;;;5098835;28;20184;-67
2021/12/20 08:33:41;;;;;;;3.63;1.53;;;9.50;99.90;;;;;;5126560;27;20241;-67
2021/12/20 08:36:12;;;;;;;2.23;1.20;;;9.60;99.90;;;;;;5104655;28;20791;-67
2021/12/20 08:38:40;;;;;;;1.07;0.93;;;9.60;99.90;;;;;;5102666;28;20183;-69
2021/12/20 08:41:07;;;;;;;3.50;1.30;;;9.60;99.90;;;;;;5093855;28;20208;-69
2021/12/20 08:43:34;;;;;;;1.83;1.00;;;9.60;99.90;;;;;;5125782;27;20185;-69
2021/12/20 08:46:02;;;;;;;1.67;1.07;;;9.60;99.90;;;;;;5125806;27;20287;-69
2021/12/20 08:48:31;;;;;;;2.10;0.97;;;9.60;99.90;;;;;;5122166;27;20195;-69
2021/12/20 08:51:01;;;;;;;0.93;0.90;;;9.60;99.90;;;;;;5129590;27;20180;-69
2021/12/20 08:53:28;;;;;;;5.30;1.47;;;9.60;99.90;;;;;;5099704;28;20279;-68
2021/12/20 08:55:56;;;;;;;4.00;1.70;;;9.60;99.90;;;;;;5103145;28;20180;-69
2021/12/20 08:58:24;;;;;;;3.63;1.60;;;9.50;99.90;;;;;;5123188;27;20176;-69
2021/12/20 09:00:52;;;;;;;10.33;1.87;;;9.50;99.90;;;;;;5102598;27;20235;-69
2021/12/20 09:03:18;;;;;;;4.17;2.03;;;9.50;99.90;;;;;;5094139;27;20208;-68
2021/12/20 09:05:44;;;;;;;5.60;2.37;;;9.30;99.90;;;;;;5108967;28;20203;-69
2021/12/20 09:08:11;;;;;;;7.77;2.10;;;9.20;99.90;;;;;;5111656;28;20192;-68
2021/12/20 09:10:38;;;;;;;3.23;1.70;;;9.00;99.90;;;;;;5088485;28;20690;-68
2021/12/20 09:13:06;;;;;;;3.67;1.67;;;8.90;99.90;;;;;;5114394;27;20188;-69
2021/12/20 09:15:33;;;;;;;3.70;1.10;;;8.80;99.90;;;;;;5105561;28;20287;-68
2021/12/20 09:18:00;;;;;;;2.30;1.10;;;8.60;99.90;;;;;;5106792;27;20216;-68
2021/12/20 09:20:29;;;;;;;2.90;1.10;;;8.50;99.90;;;;;;5107779;28;20208;-69
2021/12/20 09:23:03;;;;;;;1.50;1.23;;;8.40;99.90;;;;;;5107323;28;20289;-68
2021/12/20 09:25:32;;;;;;;3.67;1.43;;;8.50;99.90;;;;;;5100569;27;20183;-69
2021/12/20 09:28:01;;;;;;;1.80;1.40;;;8.50;99.90;;;;;;5091328;28;20266;-68
2021/12/20 09:30:29;;;;;;;4.00;1.60;;;8.40;99.90;;;;;;5126923;28;20193;-69
2021/12/20 09:32:56;;;;;;;2.17;1.43;;;8.40;99.90;;;;;;5110805;27;20229;-69
2021/12/20 09:35:26;;;;;;;3.83;1.43;;;8.50;99.90;;;;;;5128956;27;20207;-68
2021/12/20 09:37:52;;;;;;;2.07;1.50;;;8.50;99.90;;;;;;5125816;27;21715;-68
2021/12/20 09:40:40;;;;;;;4.30;1.97;;;8.50;99.90;;;;;;5129505;27;20205;-67
2021/12/20 09:43:14;;;;;;;2.40;1.23;;;8.60;99.90;;;;;;5113307;27;20299;-69
2021/12/20 09:45:45;;;;;;;2.03;1.20;;;8.60;99.90;;;;;;5128793;27;20185;-69
2021/12/20 09:48:12;;;;;;;3.90;1.40;;;8.50;99.90;;;;;;5126486;27;20201;-69
2021/12/20 09:50:39;;;;;;;2.97;1.60;;;8.50;99.90;;;;;;5107419;27;20180;-68
2021/12/20 09:53:07;;;;;;;5.10;1.50;;;8.50;99.90;;;;;;5110315;27;20667;-68
2021/12/20 09:55:35;;;;;;;1.70;1.30;;;8.50;99.90;;;;;;5106454;27;20986;-69
2021/12/20 09:58:04;;;;;;;2.00;1.30;;;8.50;99.90;;;;;;5121757;27;20184;-68
2021/12/20 10:00:33;;;;;;;2.07;1.30;;;8.50;99.90;;;;;;5109105;27;20253;-68
2021/12/20 10:02:59;;;;;;;1.60;1.37;;;8.50;99.90;;;;;;5129398;27;20715;-69
2021/12/20 10:05:26;;;;;;;2.80;1.40;;;8.60;99.90;;;;;;5118262;27;20188;-70
2021/12/20 10:07:53;;;;;;;5.83;1.67;;;8.50;99.90;;;;;;5111023;27;20302;-68
2021/12/20 10:10:43;;;;;;;3.17;1.50;;;8.50;99.90;;;;;;5112937;27;20636;-68
2021/12/20 10:13:29;;;;;;;3.93;1.57;;;8.50;99.90;;;;;;5109637;27;20607;-68
2021/12/20 10:15:58;;;;;;;3.20;1.50;;;8.40;99.90;;;;;;5083825;27;20273;-69
2021/12/20 10:18:27;;;;;;;2.63;1.40;;;8.40;99.90;;;;;;5111351;27;20246;-68
2021/12/20 10:20:57;;;;;;;2.00;1.47;;;8.50;99.90;;;;;;5113564;27;20222;-70
2021/12/20 10:23:33;;;;;;;1.80;1.60;;;8.60;99.90;;;;;;5107885;27;20231;-69
2021/12/20 10:26:20;;;;;;;10.20;2.00;;;8.70;99.90;;;;;;5122015;27;20181;-70
2021/12/20 10:28:52;;;;;;;3.27;2.40;;;9.00;99.90;;;;;;5104516;27;20234;-69
2021/12/20 10:31:25;;;;;;;9.77;2.60;;;9.20;99.90;;;;;;5109219;27;20181;-69
2021/12/20 10:33:56;;;;;;;6.63;2.20;;;9.50;99.90;;;;;;5088572;27;20188;-68
2021/12/20 10:36:24;;;;;;;3.40;1.90;;;9.80;99.90;;;;;;5123707;27;20927;-67
2021/12/20 10:38:57;;;;;;;17.47;3.70;;;10.00;99.90;;;;;;5110532;27;20697;-68
2021/12/20 10:41:33;;;;;;;20.90;2.77;;;9.90;99.90;;;;;;5111490;27;20290;-69
2021/12/20 10:44:20;;;;;;;8.33;2.50;;;10.10;99.90;;;;;;5116691;27;20194;-69
2021/12/20 10:46:54;;;;;;;5.00;2.87;;;10.10;99.90;;;;;;5126243;27;20197;-68
2021/12/20 10:49:28;;;;;;;6.00;2.03;;;10.00;99.90;;;;;;5114942;27;20231;-68
2021/12/20 10:51:54;;;;;;;10.60;2.43;;;10.20;99.90;;;;;;5124205;27;20461;-69
2021/12/20 10:54:25;;;;;;;4.63;2.10;;;10.70;99.90;;;;;;5105125;27;20199;-69
2021/12/20 10:57:01;;;;;;;8.43;2.17;;;11.00;99.90;;;;;;5122451;27;20181;-69
2021/12/20 10:59:37;;;;;;;2.83;1.73;;;11.00;99.90;;;;;;5097138;27;20212;-70
2021/12/20 11:05:23;;;;;;;2.87;1.20;;;10.90;99.90;;;;;;5035679;27;20273;-68
2021/12/20 11:10:39;;;;;;;3.20;1.50;;;10.60;99.90;;;;;;5122339;27;20280;-69
2021/12/20 11:13:19;;;;;;;3.67;1.60;;;10.40;99.90;;;;;;5128021;27;20276;-67
2021/12/20 11:15:46;;;;;;;1.57;1.20;;;10.40;99.90;;;;;;5128627;27;20261;-68
2021/12/20 11:18:16;;;;;;;6.23;1.47;;;10.40;99.90;;;;;;5108229;27;20546;-68
2021/12/20 11:20:42;;;;;;;3.73;1.57;;;10.30;99.90;;;;;;5114219;27;20192;-68
2021/12/20 11:23:11;;;;;;;3.03;1.53;;;10.20;99.90;;;;;;5127299;27;20191;-68
2021/12/20 11:25:38;;;;;;;5.20;1.43;;;10.20;99.90;;;;;;5112409;27;20272;-68
2021/12/20 11:28:04;;;;;;;4.10;1.63;;;10.10;99.90;;;;;;5105601;27;20514;-68
2021/12/20 11:30:31;;;;;;;2.37;1.50;;;10.20;99.90;;;;;;5107525;27;20815;-68
2021/12/20 11:32:57;;;;;;;2.90;1.40;;;10.10;99.90;;;;;;5132398;27;20616;-68
2021/12/20 11:35:27;;;;;;;2.87;1.70;;;10.10;99.90;;;;;;5112800;27;20223;-69
2021/12/20 11:37:53;;;;;;;4.40;1.60;;;10.10;99.90;;;;;;5137674;27;20926;-67
2021/12/20 11:40:20;;;;;;;1.73;1.40;;;10.00;99.90;;;;;;5102629;27;20300;-68
2021/12/20 11:42:50;;;;;;;4.67;1.50;;;10.00;99.90;;;;;;5093571;27;20604;-67
2021/12/20 11:45:19;;;;;;;3.07;1.80;;;10.00;99.90;;;;;;5129211;27;20192;-68
2021/12/20 11:48:13;;;;;;;5.60;1.80;;;10.00;99.90;;;;;;5122890;27;20280;-70
2021/12/20 11:50:43;;;;;;;5.57;1.73;;;10.00;99.90;;;;;;5090974;27;20196;-69
2021/12/20 11:53:16;;;;;;;10.87;2.20;;;10.10;99.90;;;;;;5096722;27;20200;-69
2021/12/20 11:55:50;;;;;;;2.53;1.83;;;10.10;99.90;;;;;;5102037;27;20287;-68
2021/12/20 11:58:31;;;;;;;6.83;1.93;;;10.20;99.90;;;;;;5126796;27;20184;-68
2021/12/20 12:01:14;;;;;;;2.63;1.90;;;10.30;99.90;;;;;;5122771;27;20969;-68
2021/12/20 12:03:55;;;;;;;4.43;2.20;;;10.30;99.90;;;;;;5104754;27;20188;-69
2021/12/20 12:06:31;;;;;;;4.53;2.07;;;10.30;99.90;;;;;;5118316;27;20470;-68
2021/12/20 12:09:00;;;;;;;3.40;2.60;;;10.20;99.90;;;;;;5119417;27;20234;-69
2021/12/20 12:11:31;;;;;;;5.10;2.37;;;10.20;99.90;;;;;;5111456;27;20200;-68
2021/12/20 12:14:08;;;;;;;6.83;2.37;;;10.20;99.90;;;;;;5107144;27;20275;-69
2021/12/20 12:17:01;;;;;;;7.87;2.80;;;10.20;99.90;;;;;;5141340;27;20601;-68
2021/12/20 12:19:52;;;;;;;4.20;2.03;;;10.20;99.90;;;;;;5106113;27;20184;-67
2021/12/20 12:23:15;;;;;;;4.50;2.30;;;10.20;99.90;;;;;;5090298;27;20284;-68
2021/12/20 12:26:00;;;;;;;5.10;2.10;;;10.20;99.90;;;;;;5076032;28;20698;-69
2021/12/20 12:28:52;;;;;;;4.93;2.30;;;10.10;99.90;;;;;;5080259;28;20183;-67
2021/12/20 12:31:18;;;;;;;3.30;1.93;;;10.10;99.90;;;;;;5115543;27;20200;-69
2021/12/20 12:33:45;;;;;;;7.90;2.50;;;10.10;99.90;;;;;;5115556;27;20234;-69
2021/12/20 12:36:30;;;;;;;5.33;1.90;;;10.10;99.90;;;;;;5091673;28;20753;-68
2021/12/20 12:39:01;;;;;;;4.70;2.27;;;10.10;99.90;;;;;;5108143;27;20196;-68
2021/12/20 12:41:45;;;;;;;4.70;2.37;;;10.10;99.90;;;;;;5106862;27;20216;-67
2021/12/20 12:44:17;;;;;;;2.90;1.83;;;10.20;99.90;;;;;;5138954;27;20188;-68
2021/12/20 12:46:53;;;;;;;3.57;1.80;;;10.30;99.90;;;;;;5118498;27;20195;-68
2021/12/20 12:49:22;;;;;;;4.13;2.00;;;10.40;99.90;;;;;;5130844;27;20626;-68
2021/12/20 12:51:59;;;;;;;5.40;2.43;;;10.50;99.90;;;;;;5111863;27;20188;-68
2021/12/20 12:55:15;;;;;;;6.70;2.10;;;10.50;99.90;;;;;;5104610;27;20221;-68
2021/12/20 12:57:43;;;;;;;2.73;1.87;;;10.50;99.90;;;;;;5109023;27;20177;-70
2021/12/20 13:00:32;;;;;;;2.13;1.90;;;10.50;99.90;;;;;;5086006;28;20208;-70
2021/12/20 13:03:12;;;;;;;4.33;1.93;;;10.50;99.90;;;;;;5102046;28;20181;-68
2021/12/20 13:05:40;;;;;;;4.07;2.10;;;10.60;99.90;;;;;;5118985;27;20184;-68
2021/12/20 13:08:08;;;;;;;3.10;2.00;;;10.60;99.90;;;;;;5108523;27;20333;-70
2021/12/20 13:10:42;;;;;;;6.60;2.00;;;10.60;99.90;;;;;;5130387;27;20193;-70
2021/12/20 13:13:23;;;;;;;2.20;1.97;;;10.60;99.90;;;;;;5095936;27;20196;-68
2021/12/20 13:16:01;;;;;;;4.97;2.20;;;10.60;99.90;;;;;;5108741;27;20196;-69
2021/12/20 13:18:32;;;;;;;2.83;2.10;;;10.60;99.90;;;;;;5122304;27;20178;-68
2021/12/20 13:21:05;;;;;;;5.07;2.33;;;10.50;99.90;;;;;;5110001;27;20348;-67
2021/12/20 13:23:46;;;;;;;4.70;2.30;;;10.40;99.90;;;;;;5115115;27;20193;-67